sensor_id;sensor_type;location;lat;lon;timestamp;pressure;altitude;pressure_sealevel;temperature;humidity
62864;BME280;48954;59.950;11.014;2023-08-01T00:01:15;98096.57;;;13.49;77.05
62864;BME280;48954;59.950;11.014;2023-08-01T00:03:40;98091.48;;;13.48;77.06
62864;BME280;48954;59.950;11.014;2023-08-01T00:06:06;98094.09;;;13.47;77.21
62864;BME280;48954;59.950;11.014;2023-08-01T00:08:33;98092.85;;;13.45;77.22
62864;BME280;48954;59.950;11.014;2023-08-01T00:10:59;98086.63;;;13.44;77.24
62864;BME280;48954;59.950;11.014;2023-08-01T00:13:26;98082.69;;;13.44;77.40
62864;BME280;48954;59.950;11.014;2023-08-01T00:15:52;98076.38;;;13.44;77.20
62864;BME280;48954;59.950;11.014;2023-08-01T00:18:19;98076.57;;;13.42;77.26
62864;BME280;48954;59.950;11.014;2023-08-01T00:20:45;98074.63;;;13.39;77.24
62864;BME280;48954;59.950;11.014;2023-08-01T00:23:11;98067.80;;;13.37;77.22
62864;BME280;48954;59.950;11.014;2023-08-01T00:25:39;98061.27;;;13.36;77.48
62864;BME280;48954;59.950;11.014;2023-08-01T00:28:05;98062.48;;;13.35;77.46
62864;BME280;48954;59.950;11.014;2023-08-01T00:30:31;98061.97;;;13.33;77.42
62864;BME280;48954;59.950;11.014;2023-08-01T00:32:56;98062.92;;;13.31;77.38
62864;BME280;48954;59.950;11.014;2023-08-01T00:35:22;98062.09;;;13.29;77.42
62864;BME280;48954;59.950;11.014;2023-08-01T00:37:48;98067.08;;;13.28;77.38
62864;BME280;48954;59.950;11.014;2023-08-01T00:40:14;98062.42;;;13.23;77.45
62864;BME280;48954;59.950;11.014;2023-08-01T00:42:40;98062.05;;;13.22;77.46
62864;BME280;48954;59.950;11.014;2023-08-01T00:45:06;98061.14;;;13.20;77.58
62864;BME280;48954;59.950;11.014;2023-08-01T00:47:32;98058.72;;;13.17;77.46
62864;BME280;48954;59.950;11.014;2023-08-01T00:49:58;98055.13;;;13.13;77.41
62864;BME280;48954;59.950;11.014;2023-08-01T00:52:24;98050.13;;;13.11;77.58
62864;BME280;48954;59.950;11.014;2023-08-01T00:54:50;98045.96;;;13.10;77.65
62864;BME280;48954;59.950;11.014;2023-08-01T00:57:19;98049.30;;;13.08;77.72
62864;BME280;48954;59.950;11.014;2023-08-01T00:59:45;98045.36;;;13.08;77.83
62864;BME280;48954;59.950;11.014;2023-08-01T01:02:10;98041.27;;;13.07;77.86
62864;BME280;48954;59.950;11.014;2023-08-01T01:04:36;98040.19;;;13.05;77.94
62864;BME280;48954;59.950;11.014;2023-08-01T01:07:04;98038.52;;;13.06;78.04
62864;BME280;48954;59.950;11.014;2023-08-01T01:09:31;98035.61;;;13.05;78.06
62864;BME280;48954;59.950;11.014;2023-08-01T01:11:58;98034.66;;;13.05;78.13
62864;BME280;48954;59.950;11.014;2023-08-01T01:14:25;98034.52;;;13.05;78.11
62864;BME280;48954;59.950;11.014;2023-08-01T01:16:51;98034.29;;;13.04;78.10
62864;BME280;48954;59.950;11.014;2023-08-01T01:19:17;98025.47;;;13.03;78.05
62864;BME280;48954;59.950;11.014;2023-08-01T01:21:44;98023.27;;;13.02;78.09
62864;BME280;48954;59.950;11.014;2023-08-01T01:24:12;98022.51;;;13.01;78.14
62864;BME280;48954;59.950;11.014;2023-08-01T01:26:41;98017.48;;;12.99;78.18
62864;BME280;48954;59.950;11.014;2023-08-01T01:29:07;98021.86;;;12.98;78.20
62864;BME280;48954;59.950;11.014;2023-08-01T01:31:34;98023.69;;;12.96;78.20
62864;BME280;48954;59.950;11.014;2023-08-01T01:34:01;98012.76;;;12.95;78.31
62864;BME280;48954;59.950;11.014;2023-08-01T01:36:27;98011.34;;;12.94;78.36
62864;BME280;48954;59.950;11.014;2023-08-01T01:38:53;98013.86;;;12.95;78.55
62864;BME280;48954;59.950;11.014;2023-08-01T01:41:19;98010.02;;;12.94;78.56
62864;BME280;48954;59.950;11.014;2023-08-01T01:43:45;98002.99;;;12.93;78.54
62864;BME280;48954;59.950;11.014;2023-08-01T01:46:18;97996.63;;;12.93;78.54
62864;BME280;48954;59.950;11.014;2023-08-01T01:48:44;97989.05;;;12.93;78.53
62864;BME280;48954;59.950;11.014;2023-08-01T01:51:10;97989.60;;;12.93;78.64
62864;BME280;48954;59.950;11.014;2023-08-01T01:53:38;97990.96;;;12.91;78.78
62864;BME280;48954;59.950;11.014;2023-08-01T01:56:04;97991.36;;;12.90;78.70
62864;BME280;48954;59.950;11.014;2023-08-01T01:58:30;97994.52;;;12.90;78.80
62864;BME280;48954;59.950;11.014;2023-08-01T02:00:56;97992.95;;;12.89;78.91
62864;BME280;48954;59.950;11.014;2023-08-01T02:03:22;97988.38;;;12.89;78.84
62864;BME280;48954;59.950;11.014;2023-08-01T02:05:47;97992.49;;;12.88;78.78
62864;BME280;48954;59.950;11.014;2023-08-01T02:08:13;97988.00;;;12.88;78.94
62864;BME280;48954;59.950;11.014;2023-08-01T02:10:39;97988.02;;;12.87;78.91
62864;BME280;48954;59.950;11.014;2023-08-01T02:13:05;97987.86;;;12.87;78.78
62864;BME280;48954;59.950;11.014;2023-08-01T02:15:31;97988.48;;;12.87;78.86
62864;BME280;48954;59.950;11.014;2023-08-01T02:17:57;97987.94;;;12.87;78.82
62864;BME280;48954;59.950;11.014;2023-08-01T02:20:23;97985.81;;;12.87;78.91
62864;BME280;48954;59.950;11.014;2023-08-01T02:22:50;97980.15;;;12.86;78.95
62864;BME280;48954;59.950;11.014;2023-08-01T02:25:16;97975.84;;;12.85;78.95
62864;BME280;48954;59.950;11.014;2023-08-01T02:27:42;97974.98;;;12.85;79.02
62864;BME280;48954;59.950;11.014;2023-08-01T02:30:08;97973.73;;;12.84;78.96
62864;BME280;48954;59.950;11.014;2023-08-01T02:32:34;97969.27;;;12.82;79.00
62864;BME280;48954;59.950;11.014;2023-08-01T02:35:00;97966.27;;;12.82;79.11
62864;BME280;48954;59.950;11.014;2023-08-01T02:37:26;97960.36;;;12.82;79.15
62864;BME280;48954;59.950;11.014;2023-08-01T02:39:52;97958.48;;;12.82;79.05
62864;BME280;48954;59.950;11.014;2023-08-01T02:42:18;97956.42;;;12.82;79.20
62864;BME280;48954;59.950;11.014;2023-08-01T02:44:44;97953.52;;;12.82;79.27
62864;BME280;48954;59.950;11.014;2023-08-01T02:47:09;97955.80;;;12.81;79.12
62864;BME280;48954;59.950;11.014;2023-08-01T02:49:35;97955.48;;;12.81;79.25
62864;BME280;48954;59.950;11.014;2023-08-01T02:52:01;97958.25;;;12.81;79.25
62864;BME280;48954;59.950;11.014;2023-08-01T02:54:27;97953.60;;;12.81;79.23
62864;BME280;48954;59.950;11.014;2023-08-01T02:56:53;97951.86;;;12.81;79.23
62864;BME280;48954;59.950;11.014;2023-08-01T02:59:19;97949.66;;;12.80;79.35
62864;BME280;48954;59.950;11.014;2023-08-01T03:01:45;97949.20;;;12.79;79.51
62864;BME280;48954;59.950;11.014;2023-08-01T03:04:11;97949.38;;;12.79;79.34
62864;BME280;48954;59.950;11.014;2023-08-01T03:06:37;97945.66;;;12.79;79.53
62864;BME280;48954;59.950;11.014;2023-08-01T03:09:03;97946.14;;;12.78;79.47
62864;BME280;48954;59.950;11.014;2023-08-01T03:11:29;97945.35;;;12.79;79.58
62864;BME280;48954;59.950;11.014;2023-08-01T03:13:55;97946.29;;;12.79;79.58
62864;BME280;48954;59.950;11.014;2023-08-01T03:16:21;97942.27;;;12.80;79.69
62864;BME280;48954;59.950;11.014;2023-08-01T03:18:47;97940.30;;;12.80;79.55
62864;BME280;48954;59.950;11.014;2023-08-01T03:21:13;97936.36;;;12.79;79.54
62864;BME280;48954;59.950;11.014;2023-08-01T03:23:39;97938.34;;;12.79;79.56
62864;BME280;48954;59.950;11.014;2023-08-01T03:26:05;97940.00;;;12.78;79.61
62864;BME280;48954;59.950;11.014;2023-08-01T03:28:31;97940.48;;;12.78;79.67
62864;BME280;48954;59.950;11.014;2023-08-01T03:30:56;97938.12;;;12.78;79.68
62864;BME280;48954;59.950;11.014;2023-08-01T03:33:23;97933.71;;;12.77;79.81
62864;BME280;48954;59.950;11.014;2023-08-01T03:35:49;97933.86;;;12.78;79.92
62864;BME280;48954;59.950;11.014;2023-08-01T03:38:15;97932.98;;;12.78;79.78
62864;BME280;48954;59.950;11.014;2023-08-01T03:40:41;97934.95;;;12.78;79.80
62864;BME280;48954;59.950;11.014;2023-08-01T03:43:07;97933.38;;;12.78;79.82
62864;BME280;48954;59.950;11.014;2023-08-01T03:45:33;97931.48;;;12.78;79.83
62864;BME280;48954;59.950;11.014;2023-08-01T03:47:59;97930.85;;;12.79;79.85
62864;BME280;48954;59.950;11.014;2023-08-01T03:50:25;97930.29;;;12.79;79.83
62864;BME280;48954;59.950;11.014;2023-08-01T03:52:51;97929.36;;;12.78;79.91
62864;BME280;48954;59.950;11.014;2023-08-01T03:55:17;97931.57;;;12.78;79.93
62864;BME280;48954;59.950;11.014;2023-08-01T03:57:43;97933.79;;;12.77;79.90
62864;BME280;48954;59.950;11.014;2023-08-01T04:00:09;97933.78;;;12.77;79.95
62864;BME280;48954;59.950;11.014;2023-08-01T04:02:35;97927.23;;;12.77;79.98
62864;BME280;48954;59.950;11.014;2023-08-01T04:05:02;97927.95;;;12.78;80.11
62864;BME280;48954;59.950;11.014;2023-08-01T04:07:28;97920.45;;;12.78;80.07
62864;BME280;48954;59.950;11.014;2023-08-01T04:09:54;97916.36;;;12.78;80.11
62864;BME280;48954;59.950;11.014;2023-08-01T04:12:20;97912.23;;;12.79;80.10
62864;BME280;48954;59.950;11.014;2023-08-01T04:14:47;97911.13;;;12.80;80.15
62864;BME280;48954;59.950;11.014;2023-08-01T04:17:13;97905.74;;;12.81;80.28
62864;BME280;48954;59.950;11.014;2023-08-01T04:19:38;97900.99;;;12.83;80.14
62864;BME280;48954;59.950;11.014;2023-08-01T04:22:04;97903.30;;;12.86;80.28
62864;BME280;48954;59.950;11.014;2023-08-01T04:24:30;97904.09;;;12.85;80.15
62864;BME280;48954;59.950;11.014;2023-08-01T04:26:56;97901.86;;;12.86;80.17
62864;BME280;48954;59.950;11.014;2023-08-01T04:29:22;97904.28;;;12.88;80.37
62864;BME280;48954;59.950;11.014;2023-08-01T04:31:48;97902.36;;;12.91;80.38
62864;BME280;48954;59.950;11.014;2023-08-01T04:34:14;97905.98;;;12.92;80.17
62864;BME280;48954;59.950;11.014;2023-08-01T04:36:40;97902.76;;;12.91;80.23
62864;BME280;48954;59.950;11.014;2023-08-01T04:39:06;97905.42;;;12.91;80.31
62864;BME280;48954;59.950;11.014;2023-08-01T04:41:32;97905.02;;;12.93;80.31
62864;BME280;48954;59.950;11.014;2023-08-01T04:43:58;97902.40;;;12.93;80.26
62864;BME280;48954;59.950;11.014;2023-08-01T04:46:24;97898.42;;;12.95;80.30
62864;BME280;48954;59.950;11.014;2023-08-01T04:48:49;97894.70;;;12.97;80.31
62864;BME280;48954;59.950;11.014;2023-08-01T04:51:15;97891.21;;;12.98;80.26
62864;BME280;48954;59.950;11.014;2023-08-01T04:53:41;97888.63;;;12.97;80.27
62864;BME280;48954;59.950;11.014;2023-08-01T04:56:07;97887.17;;;12.98;80.27
62864;BME280;48954;59.950;11.014;2023-08-01T04:58:33;97884.55;;;12.99;80.23
62864;BME280;48954;59.950;11.014;2023-08-01T05:00:58;97880.52;;;12.99;80.19
62864;BME280;48954;59.950;11.014;2023-08-01T05:03:24;97880.98;;;13.01;80.25
62864;BME280;48954;59.950;11.014;2023-08-01T05:05:50;97876.04;;;13.04;80.23
62864;BME280;48954;59.950;11.014;2023-08-01T05:08:16;97875.67;;;13.07;80.26
62864;BME280;48954;59.950;11.014;2023-08-01T05:10:42;97877.70;;;13.12;80.39
62864;BME280;48954;59.950;11.014;2023-08-01T05:13:08;97875.51;;;13.17;80.44
62864;BME280;48954;59.950;11.014;2023-08-01T05:15:34;97873.88;;;13.21;80.45
62864;BME280;48954;59.950;11.014;2023-08-01T05:17:59;97868.66;;;13.25;80.38
62864;BME280;48954;59.950;11.014;2023-08-01T05:20:25;97867.92;;;13.27;80.23
62864;BME280;48954;59.950;11.014;2023-08-01T05:22:51;97865.81;;;13.30;80.28
62864;BME280;48954;59.950;11.014;2023-08-01T05:25:17;97865.86;;;13.32;80.27
62864;BME280;48954;59.950;11.014;2023-08-01T05:27:43;97864.73;;;13.37;80.34
62864;BME280;48954;59.950;11.014;2023-08-01T05:30:09;97865.73;;;13.43;80.47
62864;BME280;48954;59.950;11.014;2023-08-01T05:32:35;97862.51;;;13.47;80.34
62864;BME280;48954;59.950;11.014;2023-08-01T05:35:01;97862.55;;;13.52;80.32
62864;BME280;48954;59.950;11.014;2023-08-01T05:37:26;97861.45;;;13.56;80.25
62864;BME280;48954;59.950;11.014;2023-08-01T05:39:52;97859.64;;;13.61;80.24
62864;BME280;48954;59.950;11.014;2023-08-01T05:42:18;97854.94;;;13.63;80.13
62864;BME280;48954;59.950;11.014;2023-08-01T05:44:44;97853.80;;;13.68;80.18
62864;BME280;48954;59.950;11.014;2023-08-01T05:47:10;97854.02;;;13.73;80.04
62864;BME280;48954;59.950;11.014;2023-08-01T05:49:36;97857.23;;;13.77;79.98
62864;BME280;48954;59.950;11.014;2023-08-01T05:52:02;97857.95;;;13.81;80.01
62864;BME280;48954;59.950;11.014;2023-08-01T05:54:28;97857.67;;;13.86;80.00
62864;BME280;48954;59.950;11.014;2023-08-01T05:56:54;97853.77;;;13.88;79.80
62864;BME280;48954;59.950;11.014;2023-08-01T05:59:21;97854.86;;;13.92;79.73
62864;BME280;48954;59.950;11.014;2023-08-01T06:01:47;97852.97;;;13.96;79.75
62864;BME280;48954;59.950;11.014;2023-08-01T06:04:13;97858.34;;;14.00;79.64
62864;BME280;48954;59.950;11.014;2023-08-01T06:06:39;97853.00;;;14.02;79.39
62864;BME280;48954;59.950;11.014;2023-08-01T06:09:05;97850.56;;;14.05;79.36
62864;BME280;48954;59.950;11.014;2023-08-01T06:11:33;97850.88;;;14.09;79.30
62864;BME280;48954;59.950;11.014;2023-08-01T06:13:59;97846.83;;;14.13;79.37
62864;BME280;48954;59.950;11.014;2023-08-01T06:16:25;97852.63;;;14.18;79.34
62864;BME280;48954;59.950;11.014;2023-08-01T06:18:50;97854.63;;;14.21;79.31
62864;BME280;48954;59.950;11.014;2023-08-01T06:21:16;97850.98;;;14.25;79.32
62864;BME280;48954;59.950;11.014;2023-08-01T06:23:42;97851.32;;;14.28;79.12
62864;BME280;48954;59.950;11.014;2023-08-01T06:26:08;97853.54;;;14.30;79.09
62864;BME280;48954;59.950;11.014;2023-08-01T06:28:34;97854.30;;;14.36;79.26
62864;BME280;48954;59.950;11.014;2023-08-01T06:30:59;97854.84;;;14.41;79.16
62864;BME280;48954;59.950;11.014;2023-08-01T06:33:25;97857.74;;;14.45;79.05
62864;BME280;48954;59.950;11.014;2023-08-01T06:35:51;97858.58;;;14.50;79.10
62864;BME280;48954;59.950;11.014;2023-08-01T06:38:17;97854.27;;;14.55;79.02
62864;BME280;48954;59.950;11.014;2023-08-01T06:40:43;97857.98;;;14.58;78.94
62864;BME280;48954;59.950;11.014;2023-08-01T06:43:10;97857.02;;;14.62;79.05
62864;BME280;48954;59.950;11.014;2023-08-01T06:45:36;97858.94;;;14.65;78.83
62864;BME280;48954;59.950;11.014;2023-08-01T06:48:01;97859.45;;;14.67;78.84
62864;BME280;48954;59.950;11.014;2023-08-01T06:50:28;97857.14;;;14.70;78.78
62864;BME280;48954;59.950;11.014;2023-08-01T06:52:53;97861.89;;;14.74;78.83
62864;BME280;48954;59.950;11.014;2023-08-01T06:55:19;97860.69;;;14.78;78.80
62864;BME280;48954;59.950;11.014;2023-08-01T06:57:45;97861.08;;;14.84;78.93
62864;BME280;48954;59.950;11.014;2023-08-01T07:00:11;97863.16;;;14.89;78.89
62864;BME280;48954;59.950;11.014;2023-08-01T07:02:37;97863.46;;;14.92;78.78
62864;BME280;48954;59.950;11.014;2023-08-01T07:05:03;97861.20;;;14.94;78.62
62864;BME280;48954;59.950;11.014;2023-08-01T07:07:29;97859.48;;;14.97;78.59
62864;BME280;48954;59.950;11.014;2023-08-01T07:09:55;97857.38;;;15.02;78.48
62864;BME280;48954;59.950;11.014;2023-08-01T07:12:21;97855.86;;;15.06;78.57
62864;BME280;48954;59.950;11.014;2023-08-01T07:14:47;97854.63;;;15.10;78.58
62864;BME280;48954;59.950;11.014;2023-08-01T07:17:14;97851.52;;;15.18;78.60
62864;BME280;48954;59.950;11.014;2023-08-01T07:19:40;97847.24;;;15.32;78.70
62864;BME280;48954;59.950;11.014;2023-08-01T07:22:05;97842.90;;;15.55;78.94
62864;BME280;48954;59.950;11.014;2023-08-01T07:24:31;97841.98;;;15.77;78.84
62864;BME280;48954;59.950;11.014;2023-08-01T07:26:57;97834.63;;;15.98;78.47
62864;BME280;48954;59.950;11.014;2023-08-01T07:29:23;97836.17;;;16.10;77.80
62864;BME280;48954;59.950;11.014;2023-08-01T07:31:50;97838.73;;;16.17;77.68
62864;BME280;48954;59.950;11.014;2023-08-01T07:34:16;97838.86;;;16.33;77.78
62864;BME280;48954;59.950;11.014;2023-08-01T07:36:42;97841.59;;;16.47;77.45
62864;BME280;48954;59.950;11.014;2023-08-01T07:39:08;97839.13;;;16.58;76.89
62864;BME280;48954;59.950;11.014;2023-08-01T07:41:34;97837.27;;;16.69;76.61
62864;BME280;48954;59.950;11.014;2023-08-01T07:44:03;97836.55;;;16.86;76.37
62864;BME280;48954;59.950;11.014;2023-08-01T07:46:29;97833.13;;;16.98;76.26
62864;BME280;48954;59.950;11.014;2023-08-01T07:48:56;97836.39;;;17.12;76.09
62864;BME280;48954;59.950;11.014;2023-08-01T07:51:24;97838.17;;;17.29;75.79
62864;BME280;48954;59.950;11.014;2023-08-01T07:53:51;97837.73;;;17.46;75.41
62864;BME280;48954;59.950;11.014;2023-08-01T07:56:17;97835.13;;;17.61;74.97
62864;BME280;48954;59.950;11.014;2023-08-01T07:58:43;97837.98;;;17.61;74.58
62864;BME280;48954;59.950;11.014;2023-08-01T08:01:08;97835.44;;;17.54;74.02
62864;BME280;48954;59.950;11.014;2023-08-01T08:03:34;97828.15;;;17.48;73.90
62864;BME280;48954;59.950;11.014;2023-08-01T08:06:00;97833.39;;;17.41;73.65
62864;BME280;48954;59.950;11.014;2023-08-01T08:08:26;97830.52;;;17.35;73.84
62864;BME280;48954;59.950;11.014;2023-08-01T08:10:52;97825.95;;;17.29;73.57
62864;BME280;48954;59.950;11.014;2023-08-01T08:13:18;97832.26;;;17.19;73.14
62864;BME280;48954;59.950;11.014;2023-08-01T08:15:44;97828.00;;;17.11;73.57
62864;BME280;48954;59.950;11.014;2023-08-01T08:18:10;97824.23;;;17.15;73.41
62864;BME280;48954;59.950;11.014;2023-08-01T08:20:43;97820.42;;;17.21;73.39
62864;BME280;48954;59.950;11.014;2023-08-01T08:23:10;97819.77;;;17.29;73.14
62864;BME280;48954;59.950;11.014;2023-08-01T08:25:37;97815.46;;;17.36;72.98
62864;BME280;48954;59.950;11.014;2023-08-01T08:28:03;97815.81;;;17.46;73.00
62864;BME280;48954;59.950;11.014;2023-08-01T08:30:29;97809.27;;;17.58;73.13
62864;BME280;48954;59.950;11.014;2023-08-01T08:32:59;97807.30;;;17.71;72.88
62864;BME280;48954;59.950;11.014;2023-08-01T08:35:25;97804.40;;;17.83;72.56
62864;BME280;48954;59.950;11.014;2023-08-01T08:37:51;97802.09;;;17.95;72.41
62864;BME280;48954;59.950;11.014;2023-08-01T08:40:16;97798.39;;;17.98;71.88
62864;BME280;48954;59.950;11.014;2023-08-01T08:42:43;97797.08;;;17.95;71.18
62864;BME280;48954;59.950;11.014;2023-08-01T08:45:09;97796.48;;;17.99;71.47
62864;BME280;48954;59.950;11.014;2023-08-01T08:47:38;97796.79;;;18.05;71.55
62864;BME280;48954;59.950;11.014;2023-08-01T08:50:07;97800.18;;;18.16;71.57
62864;BME280;48954;59.950;11.014;2023-08-01T08:52:33;97798.89;;;18.18;70.95
62864;BME280;48954;59.950;11.014;2023-08-01T08:55:00;97795.83;;;18.19;70.73
62864;BME280;48954;59.950;11.014;2023-08-01T08:57:27;97796.34;;;18.29;70.71
62864;BME280;48954;59.950;11.014;2023-08-01T08:59:53;97796.04;;;18.32;70.36
62864;BME280;48954;59.950;11.014;2023-08-01T09:02:20;97795.52;;;18.37;70.46
62864;BME280;48954;59.950;11.014;2023-08-01T09:04:49;97792.98;;;18.45;70.32
62864;BME280;48954;59.950;11.014;2023-08-01T09:07:19;97793.96;;;18.56;70.25
62864;BME280;48954;59.950;11.014;2023-08-01T09:09:49;97793.36;;;18.68;69.79
62864;BME280;48954;59.950;11.014;2023-08-01T09:12:15;97794.43;;;18.78;69.56
62864;BME280;48954;59.950;11.014;2023-08-01T09:14:41;97790.20;;;18.82;69.02
62864;BME280;48954;59.950;11.014;2023-08-01T09:17:08;97787.94;;;18.87;69.05
62864;BME280;48954;59.950;11.014;2023-08-01T09:19:34;97793.41;;;18.87;68.87
62864;BME280;48954;59.950;11.014;2023-08-01T09:22:01;97791.27;;;18.79;68.59
62864;BME280;48954;59.950;11.014;2023-08-01T09:24:27;97789.86;;;18.73;68.35
62864;BME280;48954;59.950;11.014;2023-08-01T09:27:02;97787.27;;;18.74;68.59
62864;BME280;48954;59.950;11.014;2023-08-01T09:29:28;97783.49;;;18.75;68.63
62864;BME280;48954;59.950;11.014;2023-08-01T09:31:54;97786.05;;;18.79;68.71
62864;BME280;48954;59.950;11.014;2023-08-01T09:34:23;97786.50;;;18.84;68.46
62864;BME280;48954;59.950;11.014;2023-08-01T09:37:07;97785.50;;;18.88;68.26
62864;BME280;48954;59.950;11.014;2023-08-01T09:39:33;97787.05;;;18.91;67.88
62864;BME280;48954;59.950;11.014;2023-08-01T09:42:01;97786.73;;;18.89;67.74
62864;BME280;48954;59.950;11.014;2023-08-01T09:44:28;97783.23;;;18.89;67.59
62864;BME280;48954;59.950;11.014;2023-08-01T09:47:05;97781.05;;;18.90;67.36
62864;BME280;48954;59.950;11.014;2023-08-01T09:49:31;97776.88;;;18.91;67.20
62864;BME280;48954;59.950;11.014;2023-08-01T09:51:58;97775.02;;;18.89;66.95
62864;BME280;48954;59.950;11.014;2023-08-01T09:54:24;97774.85;;;18.87;66.54
62864;BME280;48954;59.950;11.014;2023-08-01T09:56:51;97769.30;;;18.85;66.71
62864;BME280;48954;59.950;11.014;2023-08-01T09:59:25;97768.77;;;18.86;66.75
62864;BME280;48954;59.950;11.014;2023-08-01T10:01:53;97767.08;;;18.88;66.71
62864;BME280;48954;59.950;11.014;2023-08-01T10:04:21;97769.55;;;18.88;66.56
62864;BME280;48954;59.950;11.014;2023-08-01T10:06:54;97769.55;;;18.93;66.20
62864;BME280;48954;59.950;11.014;2023-08-01T10:09:21;97765.31;;;18.87;65.24
62864;BME280;48954;59.950;11.014;2023-08-01T10:11:48;97766.42;;;18.76;64.77
62864;BME280;48954;59.950;11.014;2023-08-01T10:14:16;97763.90;;;18.68;64.58
62864;BME280;48954;59.950;11.014;2023-08-01T10:16:42;97760.61;;;18.57;63.94
62864;BME280;48954;59.950;11.014;2023-08-01T10:19:09;97758.60;;;18.55;64.16
62864;BME280;48954;59.950;11.014;2023-08-01T10:21:35;97759.95;;;18.71;64.39
62864;BME280;48954;59.950;11.014;2023-08-01T10:24:02;97754.27;;;18.85;64.08
62864;BME280;48954;59.950;11.014;2023-08-01T10:26:29;97752.67;;;18.98;64.49
62864;BME280;48954;59.950;11.014;2023-08-01T10:28:55;97749.36;;;19.03;64.18
62864;BME280;48954;59.950;11.014;2023-08-01T10:31:21;97751.01;;;19.04;63.86
62864;BME280;48954;59.950;11.014;2023-08-01T10:33:48;97746.44;;;19.08;63.82
62864;BME280;48954;59.950;11.014;2023-08-01T10:36:18;97752.66;;;19.13;63.66
62864;BME280;48954;59.950;11.014;2023-08-01T10:38:47;97743.04;;;19.14;63.15
62864;BME280;48954;59.950;11.014;2023-08-01T10:41:20;97742.02;;;19.14;63.06
62864;BME280;48954;59.950;11.014;2023-08-01T10:43:46;97740.63;;;19.19;63.01
62864;BME280;48954;59.950;11.014;2023-08-01T10:46:12;97738.13;;;19.26;63.07
62864;BME280;48954;59.950;11.014;2023-08-01T10:48:51;97738.30;;;19.30;62.18
62864;BME280;48954;59.950;11.014;2023-08-01T10:51:17;97734.51;;;19.27;61.91
62864;BME280;48954;59.950;11.014;2023-08-01T10:53:43;97732.84;;;19.23;61.83
62864;BME280;48954;59.950;11.014;2023-08-01T10:56:17;97730.52;;;19.27;61.89
62864;BME280;48954;59.950;11.014;2023-08-01T10:58:43;97730.27;;;19.27;62.21
62864;BME280;48954;59.950;11.014;2023-08-01T11:01:09;97733.86;;;19.29;62.13
62864;BME280;48954;59.950;11.014;2023-08-01T11:03:36;97731.39;;;19.32;62.24
62864;BME280;48954;59.950;11.014;2023-08-01T11:06:03;97728.75;;;19.34;61.98
62864;BME280;48954;59.950;11.014;2023-08-01T11:08:40;97726.50;;;19.43;61.78
62864;BME280;48954;59.950;11.014;2023-08-01T11:11:08;97726.92;;;19.58;61.82
62864;BME280;48954;59.950;11.014;2023-08-01T11:13:38;97723.24;;;19.77;61.51
62864;BME280;48954;59.950;11.014;2023-08-01T11:16:04;97715.86;;;19.88;60.72
62864;BME280;48954;59.950;11.014;2023-08-01T11:18:30;97715.87;;;20.00;60.45
62864;BME280;48954;59.950;11.014;2023-08-01T11:20:57;97713.39;;;20.10;59.61
62864;BME280;48954;59.950;11.014;2023-08-01T11:23:30;97715.99;;;20.11;59.35
62864;BME280;48954;59.950;11.014;2023-08-01T11:25:56;97712.30;;;20.18;59.67
62864;BME280;48954;59.950;11.014;2023-08-01T11:28:22;97711.90;;;20.34;59.82
62864;BME280;48954;59.950;11.014;2023-08-01T11:30:48;97709.49;;;20.49;59.56
62864;BME280;48954;59.950;11.014;2023-08-01T11:33:24;97711.46;;;20.60;58.55
62864;BME280;48954;59.950;11.014;2023-08-01T11:35:51;97712.66;;;20.72;59.01
62864;BME280;48954;59.950;11.014;2023-08-01T11:38:17;97714.65;;;20.72;59.31
62864;BME280;48954;59.950;11.014;2023-08-01T11:40:43;97709.51;;;20.61;57.99
62864;BME280;48954;59.950;11.014;2023-08-01T11:43:09;97709.48;;;20.48;58.29
62864;BME280;48954;59.950;11.014;2023-08-01T11:45:35;97712.83;;;20.42;58.43
62864;BME280;48954;59.950;11.014;2023-08-01T11:48:01;97708.02;;;20.30;57.82
62864;BME280;48954;59.950;11.014;2023-08-01T11:50:28;97713.80;;;20.18;57.81
62864;BME280;48954;59.950;11.014;2023-08-01T11:52:54;97710.96;;;20.04;58.17
62864;BME280;48954;59.950;11.014;2023-08-01T11:55:25;97712.05;;;19.95;58.71
62864;BME280;48954;59.950;11.014;2023-08-01T11:57:56;97715.48;;;19.88;58.90
62864;BME280;48954;59.950;11.014;2023-08-01T12:00:26;97723.11;;;19.82;59.01
62864;BME280;48954;59.950;11.014;2023-08-01T12:03:09;97720.21;;;19.76;59.06
62864;BME280;48954;59.950;11.014;2023-08-01T12:05:35;97719.55;;;19.69;59.26
62864;BME280;48954;59.950;11.014;2023-08-01T12:08:12;97721.95;;;19.66;59.71
62864;BME280;48954;59.950;11.014;2023-08-01T12:10:40;97723.26;;;19.61;59.53
62864;BME280;48954;59.950;11.014;2023-08-01T12:13:06;97728.89;;;19.57;59.20
62864;BME280;48954;59.950;11.014;2023-08-01T12:15:32;97725.56;;;19.49;58.61
62864;BME280;48954;59.950;11.014;2023-08-01T12:17:58;97723.02;;;19.37;58.06
62864;BME280;48954;59.950;11.014;2023-08-01T12:20:23;97721.54;;;19.22;58.00
62864;BME280;48954;59.950;11.014;2023-08-01T12:22:49;97721.95;;;19.10;58.67
62864;BME280;48954;59.950;11.014;2023-08-01T12:25:15;97730.67;;;19.05;59.04
62864;BME280;48954;59.950;11.014;2023-08-01T12:27:41;97730.23;;;18.98;59.21
62864;BME280;48954;59.950;11.014;2023-08-01T12:30:07;97728.13;;;18.92;59.27
62864;BME280;48954;59.950;11.014;2023-08-01T12:32:34;97733.09;;;18.89;59.48
62864;BME280;48954;59.950;11.014;2023-08-01T12:35:00;97731.45;;;18.86;59.71
62864;BME280;48954;59.950;11.014;2023-08-01T12:37:25;97736.22;;;18.84;59.83
62864;BME280;48954;59.950;11.014;2023-08-01T12:42:49;97735.90;;;18.79;60.28
62864;BME280;48954;59.950;11.014;2023-08-01T12:45:15;97738.02;;;18.76;60.25
62864;BME280;48954;59.950;11.014;2023-08-01T12:47:41;97734.29;;;18.72;60.24
62864;BME280;48954;59.950;11.014;2023-08-01T12:50:07;97735.04;;;18.70;60.36